KUNV Airport Information

Runway Information
Runway 06 Length 6701 ft width 150 ft
Elevation 1231 ft Threshold ft Heading 53
Runway 24 Length 6701 ft Width 150 ft
Elevation 1192 ft Threshold ft Heading 233
Airport Frequencies
Type AWOS Name AWOS 3 Frequency 127.65 MHZ
Type CLD Name CLNC DEL Frequency 118.55 MHZ
Type CNTR Name NEW YORK C Frequency 134.8 MHZ
Type RDO Name ALTOONA RD Frequency 122.5 MHZ
Type UNIC Name CTAF/UNICO Frequency 122.8 MHZ
Airport Navaids
Airport Weather Information & NOTAM
ADDS - METARS form results

(0904 UTC 26 September 2022)
Data provider http://aviationweather.gov/metar/data/
 
METAR text: KUNV 260855Z AUTO 24007KT 10SM SCT022 BKN027 OVC037 13/11 A2968 RMK AO2 T01320114
Conditions at: KUNV (STATE COLLEGE , PA, US) observed 0855 UTC 26 September 2022
Temperature: 13.2°C (56°F)
Dewpoint: 11.4°C (53°F) [RH = 89%]
Pressure (altimeter): 29.68 inches Hg (1005.2 mb)
Winds: from the WSW (240 degrees) at 8 MPH (7 knots; 3.6 m/s)
Visibility: 10 or more miles (16+ km)
Ceiling: 2700 feet AGL
Clouds: scattered clouds at 2200 feet AGL
broken clouds at 2700 feet AGL
overcast cloud deck at 3700 feet AGL
Weather: automated observation with no human augmentation;
there may or may not be significant weather present at this time

METAR text: KUNV 260835Z AUTO 25013G17KT 10SM BKN040 BKN060 BKN075 13/11 A2968 RMK AO2 T01330110
Conditions at: KUNV (STATE COLLEGE , PA, US) observed 0835 UTC 26 September 2022
Temperature: 13.3°C (56°F)
Dewpoint: 11.0°C (52°F) [RH = 86%]
Pressure (altimeter): 29.68 inches Hg (1005.2 mb)
Winds: from the WSW (250 degrees) at 15 MPH (13 knots; 6.7 m/s)
gusting to 20 MPH (17 knots; 8.7 m/s)
Visibility: 10 or more miles (16+ km)
Ceiling: 4000 feet AGL
Clouds: broken clouds at 4000 feet AGL
broken clouds at 6000 feet AGL
broken clouds at 7500 feet AGL
Weather: automated observation with no human augmentation;
there may or may not be significant weather present at this time

METAR text: KUNV 260815Z AUTO 25010KT 10SM SCT025 BKN041 BKN055 13/11 A2968 RMK AO2 T01340109
Conditions at: KUNV (STATE COLLEGE , PA, US) observed 0815 UTC 26 September 2022
Temperature: 13.4°C (56°F)
Dewpoint: 10.9°C (52°F) [RH = 85%]
Pressure (altimeter): 29.68 inches Hg (1005.2 mb)
Winds: from the WSW (250 degrees) at 12 MPH (10 knots; 5.1 m/s)
Visibility: 10 or more miles (16+ km)
Ceiling: 4100 feet AGL
Clouds: scattered clouds at 2500 feet AGL
broken clouds at 4100 feet AGL
broken clouds at 5500 feet AGL
Weather: automated observation with no human augmentation;
there may or may not be significant weather present at this time

Forecast for: KUNV (STATE COLLEGE , PA, US)
Text: KUNV 260806Z 2608/2706 23007KT P6SM VCSH BKN035
Forecast period: 0800 to 1300 UTC 26 September 2022
Forecast type: FROM: standard forecast or significant change
Winds: from the SW (230 degrees) at 8 MPH (7 knots; 3.6 m/s)
Visibility: 6 or more miles (10+ km)
Ceiling: 3500 feet AGL
Clouds: broken clouds at 3500 feet AGL
Weather: VCSH  (showers in vicinity)
Text: FM261300 25012G24KT P6SM BKN035
Forecast period: 1300 to 1700 UTC 26 September 2022
Forecast type: FROM: standard forecast or significant change
Winds: from the WSW (250 degrees) at 14 MPH (12 knots; 6.2 m/s)
gusting to 28 MPH (24 knots; 12.3 m/s)
Visibility: 6 or more miles (10+ km)
Ceiling: 3500 feet AGL
Clouds: broken clouds at 3500 feet AGL
Weather: no significant weather forecast for this period
Text: FM261700 26015G26KT P6SM BKN040
Forecast period: 1700 UTC 26 September 2022 to 0300 UTC 27 September 2022
Forecast type: FROM: standard forecast or significant change
Winds: from the W (260 degrees) at 17 MPH (15 knots; 7.7 m/s)
gusting to 30 MPH (26 knots; 13.4 m/s)
Visibility: 6 or more miles (10+ km)
Ceiling: 4000 feet AGL
Clouds: broken clouds at 4000 feet AGL
Weather: no significant weather forecast for this period
Text: FM270300 25008G15KT P6SM SCT035
Forecast period: 0300 to 0600 UTC 27 September 2022
Forecast type: FROM: standard forecast or significant change
Winds: from the WSW (250 degrees) at 9 MPH (8 knots; 4.1 m/s)
gusting to 17 MPH (15 knots; 7.7 m/s)
Visibility: 6 or more miles (10+ km)
Ceiling: at least 12,000 feet AGL
Clouds: scattered clouds at 3500 feet AGL
Weather: no significant weather forecast for this period